Rechercher aéroport 
image banner adimage banner adimage banner ad
image banner ad

L17 - Taft-Kern County

Situé à Taft, United States

ICAO - L17, IATA -

Données fournies par Airmate  

Information générale

Coordonnées: N35°8'30" W119°26'16"
Élévation : 858 feet MSL.
Variation magnétique : 14° East
Voir autres Aéroports à California

Données opérationnelles

Special qualification required
Heure actuelle UTC:
Heure actuelle locale:
Météo à : KBFL - Meadows Field ( 47 km )
METAR: KBFL 251254Z AUTO 05005KT 9SM CLR 26/04 A2990 RMK AO2 SLP115 T02610039
TAF: KBFL 251120Z 2512/2612 VRB06KT P6SM FEW250 FM260300 VRB05KT P6SM FEW250 FM260500 33007KT P6SM FEW250
Voir NOTAMs / SUP AIP / TFR affectant cet aéroport [VIEW]
Fréquences de communication: [VIEW]

Pistes:

Identifiant RWYQFULongueur (ft)Largeur (ft)SurfaceLDA (ft)
0780°328360ASPH
25260°328360ASPH

Coordonnées de l'aéroport

Adresse: Taft United States

Vue satellite de L17